createdAt,value
2023-01-24T00:11:30.616Z,96
2023-01-24T00:31:32.404Z,96
2023-01-24T00:51:33.996Z,96
2023-01-24T01:01:34.202Z,95
2023-01-24T01:11:35.192Z,96
2023-01-24T01:21:36.065Z,96
2023-01-24T01:31:36.622Z,95
2023-01-24T01:41:37.590Z,95
2023-01-24T01:51:37.768Z,95
2023-01-24T02:01:38.077Z,95
2023-01-24T02:11:38.432Z,95
2023-01-24T02:21:39.203Z,95
2023-01-24T02:31:39.402Z,95
2023-01-24T02:41:39.959Z,95
2023-01-24T02:51:40.909Z,95
2023-01-24T03:01:41.713Z,96
2023-01-24T03:11:42.365Z,95
2023-01-24T03:31:43.303Z,95
2023-01-24T03:41:44.091Z,95
2023-01-24T03:51:44.581Z,95
2023-01-24T04:01:45.578Z,95
2023-01-24T04:11:45.992Z,95
2023-01-24T04:31:46.495Z,94
2023-01-24T04:41:46.948Z,94
2023-01-24T04:51:47.479Z,94
2023-01-24T05:01:47.719Z,93
2023-01-24T05:11:48.064Z,94
2023-01-24T05:21:48.259Z,93
2023-01-24T05:31:48.485Z,93
2023-01-24T05:41:49.155Z,93
2023-01-24T05:51:50.279Z,93
2023-01-24T06:01:50.795Z,93
2023-01-24T06:11:51.555Z,92
2023-01-24T06:21:52.320Z,93
2023-01-24T06:31:53.327Z,93
2023-01-24T06:41:54.177Z,93
2023-01-24T06:51:54.956Z,93
2023-01-24T07:11:57.048Z,93
2023-01-24T07:21:57.616Z,93
2023-01-24T07:31:58.173Z,93
2023-01-24T07:41:58.440Z,92
2023-01-24T07:51:59.075Z,92
2023-01-24T08:01:59.482Z,93
2023-01-24T08:11:59.755Z,92
2023-01-24T08:22:00.776Z,92
2023-01-24T08:32:01.639Z,92
2023-01-24T08:42:01.823Z,91
2023-01-24T08:52:02.798Z,92
2023-01-24T09:02:05.039Z,92
2023-01-24T09:12:04.474Z,92
2023-01-24T09:22:04.775Z,92
2023-01-24T09:32:05.192Z,92
2023-01-24T09:42:11.331Z,92
2023-01-24T09:52:05.969Z,91
2023-01-24T10:02:06.407Z,91
2023-01-24T10:12:06.836Z,91
2023-01-24T10:22:07.665Z,91
2023-01-24T10:32:08.385Z,91
2023-01-24T10:42:09.361Z,91
2023-01-24T10:52:09.729Z,91
2023-01-24T11:02:10.347Z,91
2023-01-24T11:12:11.257Z,91
2023-01-24T11:22:11.517Z,91
2023-01-24T11:42:12.909Z,91
2023-01-24T11:52:13.753Z,91
2023-01-24T12:02:14.825Z,91
2023-01-24T12:12:15.307Z,91
2023-01-24T12:52:17.351Z,90
2023-01-24T13:02:18.508Z,91
2023-01-24T13:12:18.910Z,90
2023-01-24T13:32:19.748Z,91
2023-01-24T13:42:19.924Z,91
2023-01-24T13:52:20.945Z,90
2023-01-24T14:02:21.604Z,91
2023-01-24T14:12:22.038Z,91
2023-01-24T14:22:22.691Z,91
2023-01-24T15:02:25.449Z,91
2023-01-24T15:12:25.787Z,92
2023-01-24T15:22:26.250Z,91
2023-01-24T15:32:26.532Z,91
2023-01-24T15:52:27.050Z,92
2023-01-24T16:02:27.587Z,91
2023-01-24T16:22:28.953Z,92
2023-01-24T16:32:29.501Z,93
2023-01-24T16:42:30.427Z,93
2023-01-24T17:02:31.328Z,93
2023-01-24T17:12:31.909Z,93
2023-01-24T17:22:32.217Z,93
2023-01-24T17:32:32.539Z,93
2023-01-24T17:42:33.547Z,93
2023-01-24T17:52:34.166Z,93
2023-01-24T18:02:34.922Z,94
2023-01-24T18:12:35.535Z,94
2023-01-24T18:22:36.047Z,94
2023-01-24T18:32:36.843Z,94
2023-01-24T18:42:37.226Z,93
2023-01-24T18:52:37.788Z,93
2023-01-24T19:02:38.791Z,94
2023-01-24T19:12:38.981Z,93
2023-01-24T19:22:39.975Z,93
2023-01-24T19:32:40.227Z,93
2023-01-24T19:42:40.987Z,94
2023-01-24T19:52:41.460Z,94
2023-01-24T20:02:42.272Z,94
2023-01-24T20:12:42.357Z,94
2023-01-24T20:32:43.265Z,94
2023-01-24T20:42:43.564Z,94
2023-01-24T20:52:44.361Z,94
2023-01-24T21:22:46.600Z,94
2023-01-24T21:32:47.419Z,94
2023-01-24T21:42:48.406Z,95
2023-01-24T21:52:49.368Z,95
2023-01-24T22:02:49.790Z,95
2023-01-24T22:12:50.241Z,95
2023-01-24T22:22:50.447Z,95
2023-01-24T22:32:50.966Z,95
2023-01-24T22:52:51.488Z,96
2023-01-24T23:22:52.931Z,96
2023-01-24T23:32:53.426Z,96
2023-01-24T23:42:53.590Z,97
2023-01-24T23:52:53.777Z,97
